sensor_id;sensor_type;location;lat;lon;timestamp;pressure;altitude;pressure_sealevel;temperature;humidity
30730;BME280;17476;48.458;7.928;2023-03-13T00:03:45;99530.75;;;11.89;72.54
30730;BME280;17476;48.458;7.928;2023-03-13T00:06:11;99535.09;;;11.82;73.04
30730;BME280;17476;48.458;7.928;2023-03-13T00:08:38;99541.63;;;11.86;72.55
30730;BME280;17476;48.458;7.928;2023-03-13T00:11:06;99534.81;;;11.91;72.42
30730;BME280;17476;48.458;7.928;2023-03-13T00:13:32;99525.31;;;11.90;72.76
30730;BME280;17476;48.458;7.928;2023-03-13T00:16:02;99524.78;;;11.95;72.60
30730;BME280;17476;48.458;7.928;2023-03-13T00:18:29;99526.69;;;12.01;71.85
30730;BME280;17476;48.458;7.928;2023-03-13T00:21:04;99522.16;;;11.95;72.27
30730;BME280;17476;48.458;7.928;2023-03-13T00:23:33;99527.84;;;11.98;72.41
30730;BME280;17476;48.458;7.928;2023-03-13T00:26:12;99510.69;;;11.96;72.25
30730;BME280;17476;48.458;7.928;2023-03-13T00:28:39;99515.63;;;12.06;71.52
30730;BME280;17476;48.458;7.928;2023-03-13T00:31:10;99508.69;;;11.98;72.37
30730;BME280;17476;48.458;7.928;2023-03-13T00:33:39;99505.09;;;11.99;71.98
30730;BME280;17476;48.458;7.928;2023-03-13T00:36:12;99500.75;;;12.06;71.74
30730;BME280;17476;48.458;7.928;2023-03-13T00:38:39;99495.50;;;12.06;71.95
30730;BME280;17476;48.458;7.928;2023-03-13T00:41:20;99485.84;;;12.07;71.93
30730;BME280;17476;48.458;7.928;2023-03-13T00:43:47;99488.25;;;12.08;71.98
30730;BME280;17476;48.458;7.928;2023-03-13T00:46:16;99488.69;;;12.12;71.98
30730;BME280;17476;48.458;7.928;2023-03-13T00:48:45;99488.34;;;12.15;71.68
30730;BME280;17476;48.458;7.928;2023-03-13T00:51:12;99484.53;;;12.17;71.56
30730;BME280;17476;48.458;7.928;2023-03-13T00:53:38;99480.16;;;12.24;71.29
30730;BME280;17476;48.458;7.928;2023-03-13T00:56:07;99477.34;;;12.26;71.55
30730;BME280;17476;48.458;7.928;2023-03-13T00:58:36;99474.56;;;12.27;71.22
30730;BME280;17476;48.458;7.928;2023-03-13T01:03:34;99465.63;;;12.43;70.02
30730;BME280;17476;48.458;7.928;2023-03-13T01:06:03;99457.09;;;12.56;70.29
30730;BME280;17476;48.458;7.928;2023-03-13T01:08:30;99460.84;;;12.47;70.80
30730;BME280;17476;48.458;7.928;2023-03-13T01:11:06;99464.34;;;12.54;70.81
30730;BME280;17476;48.458;7.928;2023-03-13T01:13:32;99458.97;;;12.41;71.41
30730;BME280;17476;48.458;7.928;2023-03-13T01:16:14;99457.03;;;12.49;71.32
30730;BME280;17476;48.458;7.928;2023-03-13T01:18:48;99462.06;;;12.51;71.59
30730;BME280;17476;48.458;7.928;2023-03-13T01:21:15;99453.19;;;12.52;72.29
30730;BME280;17476;48.458;7.928;2023-03-13T01:23:43;99443.16;;;12.55;72.87
30730;BME280;17476;48.458;7.928;2023-03-13T01:26:09;99443.03;;;12.42;73.32
30730;BME280;17476;48.458;7.928;2023-03-13T01:28:36;99435.53;;;12.39;74.24
30730;BME280;17476;48.458;7.928;2023-03-13T01:31:17;99439.41;;;12.43;75.17
30730;BME280;17476;48.458;7.928;2023-03-13T01:33:44;99433.22;;;12.29;75.64
30730;BME280;17476;48.458;7.928;2023-03-13T01:36:10;99429.94;;;12.21;76.14
30730;BME280;17476;48.458;7.928;2023-03-13T01:38:38;99425.22;;;12.16;77.08
30730;BME280;17476;48.458;7.928;2023-03-13T01:41:06;99420.50;;;12.26;76.24
30730;BME280;17476;48.458;7.928;2023-03-13T01:43:35;99418.00;;;12.40;76.21
30730;BME280;17476;48.458;7.928;2023-03-13T01:46:18;99409.31;;;12.39;75.79
30730;BME280;17476;48.458;7.928;2023-03-13T01:51:35;99408.13;;;12.42;77.89
30730;BME280;17476;48.458;7.928;2023-03-13T01:54:20;99406.31;;;12.42;78.35
30730;BME280;17476;48.458;7.928;2023-03-13T01:56:53;99406.06;;;12.37;79.77
30730;BME280;17476;48.458;7.928;2023-03-13T01:59:39;99404.31;;;12.44;79.57
30730;BME280;17476;48.458;7.928;2023-03-13T02:02:07;99397.44;;;12.43;80.60
30730;BME280;17476;48.458;7.928;2023-03-13T02:04:38;99394.16;;;12.35;81.80
30730;BME280;17476;48.458;7.928;2023-03-13T02:07:11;99395.31;;;12.32;82.23
30730;BME280;17476;48.458;7.928;2023-03-13T02:09:41;99390.03;;;12.25;82.56
30730;BME280;17476;48.458;7.928;2023-03-13T02:12:21;99385.78;;;12.24;83.17
30730;BME280;17476;48.458;7.928;2023-03-13T02:14:54;99378.09;;;12.23;82.32
30730;BME280;17476;48.458;7.928;2023-03-13T02:17:24;99372.44;;;12.19;82.08
30730;BME280;17476;48.458;7.928;2023-03-13T02:19:51;99375.56;;;12.08;82.90
30730;BME280;17476;48.458;7.928;2023-03-13T02:22:41;99368.13;;;12.12;83.31
30730;BME280;17476;48.458;7.928;2023-03-13T02:25:44;99363.81;;;12.25;83.18
30730;BME280;17476;48.458;7.928;2023-03-13T02:28:26;99351.28;;;12.21;83.50
30730;BME280;17476;48.458;7.928;2023-03-13T02:30:55;99349.41;;;12.15;82.98
30730;BME280;17476;48.458;7.928;2023-03-13T02:33:29;99348.41;;;12.16;83.20
30730;BME280;17476;48.458;7.928;2023-03-13T02:35:56;99345.16;;;12.35;81.93
30730;BME280;17476;48.458;7.928;2023-03-13T02:38:27;99334.84;;;12.34;82.14
30730;BME280;17476;48.458;7.928;2023-03-13T02:40:55;99333.25;;;12.39;82.52
30730;BME280;17476;48.458;7.928;2023-03-13T02:43:32;99319.88;;;12.27;82.08
30730;BME280;17476;48.458;7.928;2023-03-13T02:48:43;99304.03;;;12.14;82.26
30730;BME280;17476;48.458;7.928;2023-03-13T02:51:40;99309.44;;;12.34;80.97
30730;BME280;17476;48.458;7.928;2023-03-13T02:54:25;99295.03;;;12.23;81.06
30730;BME280;17476;48.458;7.928;2023-03-13T02:56:57;99301.66;;;12.47;79.81
30730;BME280;17476;48.458;7.928;2023-03-13T02:59:25;99307.78;;;12.54;79.68
30730;BME280;17476;48.458;7.928;2023-03-13T03:01:52;99315.47;;;12.63;79.22
30730;BME280;17476;48.458;7.928;2023-03-13T03:04:22;99308.88;;;12.73;78.85
30730;BME280;17476;48.458;7.928;2023-03-13T03:06:49;99308.06;;;12.73;79.16
30730;BME280;17476;48.458;7.928;2023-03-13T03:09:16;99322.59;;;12.69;79.29
30730;BME280;17476;48.458;7.928;2023-03-13T03:11:42;99325.56;;;12.66;79.80
30730;BME280;17476;48.458;7.928;2023-03-13T03:14:09;99323.25;;;12.77;79.28
30730;BME280;17476;48.458;7.928;2023-03-13T03:16:35;99315.38;;;12.77;78.88
30730;BME280;17476;48.458;7.928;2023-03-13T03:19:01;99315.81;;;12.81;78.25
30730;BME280;17476;48.458;7.928;2023-03-13T03:21:27;99313.78;;;12.83;78.08
30730;BME280;17476;48.458;7.928;2023-03-13T03:23:53;99317.38;;;12.75;78.83
30730;BME280;17476;48.458;7.928;2023-03-13T03:26:19;99321.59;;;12.70;79.13
30730;BME280;17476;48.458;7.928;2023-03-13T03:28:45;99320.38;;;12.72;78.92
30730;BME280;17476;48.458;7.928;2023-03-13T03:31:13;99307.47;;;12.71;79.08
30730;BME280;17476;48.458;7.928;2023-03-13T03:33:40;99312.69;;;12.71;79.44
30730;BME280;17476;48.458;7.928;2023-03-13T03:36:10;99316.91;;;12.65;79.74
30730;BME280;17476;48.458;7.928;2023-03-13T03:38:37;99319.38;;;12.73;79.82
30730;BME280;17476;48.458;7.928;2023-03-13T03:41:09;99322.59;;;12.69;80.05
30730;BME280;17476;48.458;7.928;2023-03-13T03:43:36;99327.41;;;12.65;80.80
30730;BME280;17476;48.458;7.928;2023-03-13T03:46:02;99312.50;;;12.72;80.52
30730;BME280;17476;48.458;7.928;2023-03-13T03:48:28;99314.13;;;12.73;81.01
30730;BME280;17476;48.458;7.928;2023-03-13T03:50:54;99325.00;;;12.70;80.90
30730;BME280;17476;48.458;7.928;2023-03-13T03:53:20;99315.16;;;12.79;80.75
30730;BME280;17476;48.458;7.928;2023-03-13T03:55:46;99318.56;;;12.73;81.49
30730;BME280;17476;48.458;7.928;2023-03-13T03:58:11;99328.66;;;12.69;80.86
30730;BME280;17476;48.458;7.928;2023-03-13T04:00:37;99327.44;;;12.72;81.44
30730;BME280;17476;48.458;7.928;2023-03-13T04:03:03;99329.84;;;12.67;81.73
30730;BME280;17476;48.458;7.928;2023-03-13T04:05:29;99327.88;;;12.75;82.11
30730;BME280;17476;48.458;7.928;2023-03-13T04:07:55;99312.75;;;12.77;82.49
30730;BME280;17476;48.458;7.928;2023-03-13T04:10:21;99308.69;;;12.75;82.84
30730;BME280;17476;48.458;7.928;2023-03-13T04:12:46;99306.94;;;12.82;83.16
30730;BME280;17476;48.458;7.928;2023-03-13T04:15:12;99301.69;;;12.82;82.71
30730;BME280;17476;48.458;7.928;2023-03-13T04:17:38;99297.81;;;12.78;82.75
30730;BME280;17476;48.458;7.928;2023-03-13T04:20:05;99299.06;;;12.82;83.43
30730;BME280;17476;48.458;7.928;2023-03-13T04:22:32;99298.81;;;12.77;83.29
30730;BME280;17476;48.458;7.928;2023-03-13T04:24:59;99300.44;;;12.78;84.18
30730;BME280;17476;48.458;7.928;2023-03-13T04:27:24;99296.44;;;12.82;83.96
30730;BME280;17476;48.458;7.928;2023-03-13T04:29:50;99303.28;;;12.83;83.21
30730;BME280;17476;48.458;7.928;2023-03-13T04:32:16;99298.00;;;12.76;84.05
30730;BME280;17476;48.458;7.928;2023-03-13T04:34:42;99294.41;;;12.84;83.40
30730;BME280;17476;48.458;7.928;2023-03-13T04:37:08;99301.91;;;12.87;83.67
30730;BME280;17476;48.458;7.928;2023-03-13T04:39:33;99296.66;;;12.87;83.29
30730;BME280;17476;48.458;7.928;2023-03-13T04:41:59;99299.69;;;12.91;83.97
30730;BME280;17476;48.458;7.928;2023-03-13T04:44:25;99292.03;;;12.89;83.60
30730;BME280;17476;48.458;7.928;2023-03-13T04:46:55;99284.13;;;12.82;84.19
30730;BME280;17476;48.458;7.928;2023-03-13T04:49:23;99283.09;;;12.83;85.22
30730;BME280;17476;48.458;7.928;2023-03-13T04:51:49;99287.72;;;12.75;85.46
30730;BME280;17476;48.458;7.928;2023-03-13T04:54:15;99291.34;;;12.74;85.97
30730;BME280;17476;48.458;7.928;2023-03-13T04:56:41;99300.78;;;12.68;87.37
30730;BME280;17476;48.458;7.928;2023-03-13T04:59:10;99307.63;;;12.63;88.76
30730;BME280;17476;48.458;7.928;2023-03-13T05:01:36;99301.72;;;12.54;89.45
30730;BME280;17476;48.458;7.928;2023-03-13T05:04:02;99303.66;;;12.45;89.76
30730;BME280;17476;48.458;7.928;2023-03-13T05:06:28;99300.63;;;12.42;90.01
30730;BME280;17476;48.458;7.928;2023-03-13T05:08:54;99300.16;;;12.38;90.73
30730;BME280;17476;48.458;7.928;2023-03-13T05:11:20;99305.06;;;12.41;90.24
30730;BME280;17476;48.458;7.928;2023-03-13T05:13:45;99305.06;;;12.41;90.23
30730;BME280;17476;48.458;7.928;2023-03-13T05:16:11;99299.81;;;12.41;90.00
30730;BME280;17476;48.458;7.928;2023-03-13T05:18:37;99297.00;;;12.43;91.00
30730;BME280;17476;48.458;7.928;2023-03-13T05:21:04;99302.03;;;12.44;90.78
30730;BME280;17476;48.458;7.928;2023-03-13T05:23:30;99290.28;;;12.34;91.72
30730;BME280;17476;48.458;7.928;2023-03-13T05:25:56;99288.06;;;12.37;92.44
30730;BME280;17476;48.458;7.928;2023-03-13T05:28:22;99277.56;;;12.37;92.20
30730;BME280;17476;48.458;7.928;2023-03-13T05:30:48;99277.78;;;12.36;92.25
30730;BME280;17476;48.458;7.928;2023-03-13T05:33:14;99281.78;;;12.32;92.67
30730;BME280;17476;48.458;7.928;2023-03-13T05:35:41;99286.84;;;12.33;92.03
30730;BME280;17476;48.458;7.928;2023-03-13T05:38:08;99283.53;;;12.24;92.32
30730;BME280;17476;48.458;7.928;2023-03-13T05:40:34;99285.41;;;12.30;92.07
30730;BME280;17476;48.458;7.928;2023-03-13T05:42:59;99283.38;;;12.33;92.03
30730;BME280;17476;48.458;7.928;2023-03-13T05:45:25;99294.47;;;12.28;92.41
30730;BME280;17476;48.458;7.928;2023-03-13T05:47:51;99294.84;;;12.25;92.71
30730;BME280;17476;48.458;7.928;2023-03-13T05:50:20;99301.06;;;12.24;93.06
30730;BME280;17476;48.458;7.928;2023-03-13T05:52:47;99297.69;;;12.30;92.13
30730;BME280;17476;48.458;7.928;2023-03-13T05:55:12;99296.50;;;12.33;92.37
30730;BME280;17476;48.458;7.928;2023-03-13T05:57:38;99294.66;;;12.26;92.60
30730;BME280;17476;48.458;7.928;2023-03-13T06:00:05;99290.28;;;12.34;92.59
30730;BME280;17476;48.458;7.928;2023-03-13T06:02:31;99290.63;;;12.30;92.59
30730;BME280;17476;48.458;7.928;2023-03-13T06:04:56;99286.44;;;12.36;92.87
30730;BME280;17476;48.458;7.928;2023-03-13T06:07:22;99292.34;;;12.45;91.92
30730;BME280;17476;48.458;7.928;2023-03-13T06:09:48;99297.56;;;12.38;92.33
30730;BME280;17476;48.458;7.928;2023-03-13T06:12:14;99302.22;;;12.43;91.70
30730;BME280;17476;48.458;7.928;2023-03-13T06:14:40;99290.53;;;12.45;91.69
30730;BME280;17476;48.458;7.928;2023-03-13T06:17:06;99292.56;;;12.43;91.63
30730;BME280;17476;48.458;7.928;2023-03-13T06:19:31;99295.75;;;12.39;92.48
30730;BME280;17476;48.458;7.928;2023-03-13T06:21:57;99285.28;;;12.45;91.73
30730;BME280;17476;48.458;7.928;2023-03-13T06:24:23;99291.78;;;12.49;92.01
30730;BME280;17476;48.458;7.928;2023-03-13T06:26:50;99280.28;;;12.50;91.89
30730;BME280;17476;48.458;7.928;2023-03-13T06:29:16;99276.44;;;12.46;92.17
30730;BME280;17476;48.458;7.928;2023-03-13T06:31:42;99284.72;;;12.50;92.22
30730;BME280;17476;48.458;7.928;2023-03-13T06:34:12;99284.94;;;12.48;92.90
30730;BME280;17476;48.458;7.928;2023-03-13T06:36:38;99283.88;;;12.43;92.73
30730;BME280;17476;48.458;7.928;2023-03-13T06:39:05;99275.25;;;12.49;92.87
30730;BME280;17476;48.458;7.928;2023-03-13T06:41:31;99283.34;;;12.54;92.25
30730;BME280;17476;48.458;7.928;2023-03-13T06:43:57;99280.94;;;12.59;92.00
30730;BME280;17476;48.458;7.928;2023-03-13T06:46:24;99284.38;;;12.60;91.83
30730;BME280;17476;48.458;7.928;2023-03-13T06:48:50;99280.97;;;12.66;91.80
30730;BME280;17476;48.458;7.928;2023-03-13T06:51:19;99297.94;;;12.63;91.47
30730;BME280;17476;48.458;7.928;2023-03-13T06:53:46;99299.38;;;12.72;91.23
30730;BME280;17476;48.458;7.928;2023-03-13T06:56:13;99298.56;;;12.72;91.35
30730;BME280;17476;48.458;7.928;2023-03-13T06:58:39;99292.13;;;12.68;90.87
30730;BME280;17476;48.458;7.928;2023-03-13T07:01:10;99303.06;;;12.78;90.72
30730;BME280;17476;48.458;7.928;2023-03-13T07:03:38;99297.66;;;12.86;90.77
30730;BME280;17476;48.458;7.928;2023-03-13T07:06:06;99293.16;;;12.80;90.64
30730;BME280;17476;48.458;7.928;2023-03-13T07:08:32;99291.81;;;12.91;90.13
30730;BME280;17476;48.458;7.928;2023-03-13T07:11:01;99283.16;;;12.90;89.90
30730;BME280;17476;48.458;7.928;2023-03-13T07:13:29;99273.06;;;12.87;90.78
30730;BME280;17476;48.458;7.928;2023-03-13T07:15:59;99267.41;;;12.90;90.14
30730;BME280;17476;48.458;7.928;2023-03-13T07:18:25;99270.88;;;13.04;89.50
30730;BME280;17476;48.458;7.928;2023-03-13T07:20:53;99266.41;;;12.98;89.89
30730;BME280;17476;48.458;7.928;2023-03-13T07:23:20;99244.81;;;12.96;89.88
30730;BME280;17476;48.458;7.928;2023-03-13T07:25:58;99232.31;;;13.04;89.26
30730;BME280;17476;48.458;7.928;2023-03-13T07:28:27;99233.97;;;13.12;89.40
30730;BME280;17476;48.458;7.928;2023-03-13T07:30:53;99233.63;;;13.22;88.88
30730;BME280;17476;48.458;7.928;2023-03-13T07:33:19;99219.88;;;13.26;88.93
30730;BME280;17476;48.458;7.928;2023-03-13T07:35:52;99217.47;;;13.31;88.40
30730;BME280;17476;48.458;7.928;2023-03-13T07:38:18;99209.41;;;13.39;87.66
30730;BME280;17476;48.458;7.928;2023-03-13T07:40:53;99210.44;;;13.52;87.88
30730;BME280;17476;48.458;7.928;2023-03-13T07:43:20;99211.69;;;13.62;87.12
30730;BME280;17476;48.458;7.928;2023-03-13T07:45:54;99211.47;;;13.71;86.29
30730;BME280;17476;48.458;7.928;2023-03-13T07:48:22;99200.56;;;13.74;86.34
30730;BME280;17476;48.458;7.928;2023-03-13T07:50:48;99203.19;;;13.80;86.61
30730;BME280;17476;48.458;7.928;2023-03-13T07:53:15;99213.09;;;13.91;86.63
30730;BME280;17476;48.458;7.928;2023-03-13T07:56:03;99211.06;;;14.00;85.75
30730;BME280;17476;48.458;7.928;2023-03-13T07:58:35;99215.94;;;14.10;85.26
30730;BME280;17476;48.458;7.928;2023-03-13T08:01:19;99212.66;;;14.14;86.02
30730;BME280;17476;48.458;7.928;2023-03-13T08:03:46;99215.09;;;14.23;84.87
30730;BME280;17476;48.458;7.928;2023-03-13T08:06:20;99218.28;;;14.44;83.26
30730;BME280;17476;48.458;7.928;2023-03-13T08:08:49;99212.56;;;14.67;83.14
30730;BME280;17476;48.458;7.928;2023-03-13T08:11:17;99217.31;;;14.97;81.07
30730;BME280;17476;48.458;7.928;2023-03-13T08:13:44;99209.72;;;15.20;81.89
30730;BME280;17476;48.458;7.928;2023-03-13T08:16:19;99202.41;;;15.54;79.23
30730;BME280;17476;48.458;7.928;2023-03-13T08:18:49;99203.13;;;15.68;79.27
30730;BME280;17476;48.458;7.928;2023-03-13T08:21:24;99217.66;;;15.77;77.38
30730;BME280;17476;48.458;7.928;2023-03-13T08:23:55;99206.75;;;15.73;76.79
30730;BME280;17476;48.458;7.928;2023-03-13T08:26:25;99203.59;;;15.58;77.50
30730;BME280;17476;48.458;7.928;2023-03-13T08:28:54;99209.91;;;15.50;77.82
30730;BME280;17476;48.458;7.928;2023-03-13T08:31:26;99216.91;;;15.38;78.56
30730;BME280;17476;48.458;7.928;2023-03-13T08:33:53;99217.50;;;15.40;78.06
30730;BME280;17476;48.458;7.928;2023-03-13T08:36:34;99209.41;;;15.35;78.09
30730;BME280;17476;48.458;7.928;2023-03-13T08:39:11;99200.41;;;15.49;77.17
30730;BME280;17476;48.458;7.928;2023-03-13T08:41:38;99184.31;;;15.57;76.61
30730;BME280;17476;48.458;7.928;2023-03-13T08:44:10;99186.53;;;15.67;77.06
30730;BME280;17476;48.458;7.928;2023-03-13T08:46:37;99173.75;;;15.64;77.16
30730;BME280;17476;48.458;7.928;2023-03-13T08:49:05;99164.22;;;15.63;76.00
30730;BME280;17476;48.458;7.928;2023-03-13T08:51:32;99157.38;;;15.55;76.09
30730;BME280;17476;48.458;7.928;2023-03-13T08:53:59;99157.00;;;16.02;75.48
30730;BME280;17476;48.458;7.928;2023-03-13T08:56:27;99156.00;;;16.40;73.75
30730;BME280;17476;48.458;7.928;2023-03-13T08:58:57;99155.63;;;16.73;73.42
30730;BME280;17476;48.458;7.928;2023-03-13T09:01:27;99164.72;;;17.07;71.01
30730;BME280;17476;48.458;7.928;2023-03-13T09:03:54;99156.25;;;17.16;68.84
30730;BME280;17476;48.458;7.928;2023-03-13T09:06:20;99140.41;;;17.16;69.71
30730;BME280;17476;48.458;7.928;2023-03-13T09:08:50;99137.22;;;17.38;69.34
30730;BME280;17476;48.458;7.928;2023-03-13T09:11:20;99144.56;;;17.89;69.28
30730;BME280;17476;48.458;7.928;2023-03-13T09:13:49;99131.25;;;18.36;67.30
30730;BME280;17476;48.458;7.928;2023-03-13T09:16:22;99141.78;;;18.71;64.32
30730;BME280;17476;48.458;7.928;2023-03-13T09:18:49;99136.50;;;18.88;61.96
30730;BME280;17476;48.458;7.928;2023-03-13T09:21:21;99137.31;;;18.89;63.15
30730;BME280;17476;48.458;7.928;2023-03-13T09:23:48;99126.78;;;18.77;62.87
30730;BME280;17476;48.458;7.928;2023-03-13T09:26:15;99119.00;;;18.47;64.49
30730;BME280;17476;48.458;7.928;2023-03-13T09:28:42;99113.09;;;18.97;nan
30730;BME280;17476;48.458;7.928;2023-03-13T09:31:11;99103.88;;;19.16;60.59
30730;BME280;17476;48.458;7.928;2023-03-13T09:33:38;99091.56;;;19.44;61.24
30730;BME280;17476;48.458;7.928;2023-03-13T09:36:05;99087.09;;;19.44;59.52
30730;BME280;17476;48.458;7.928;2023-03-13T09:38:34;99087.34;;;19.59;59.33
30730;BME280;17476;48.458;7.928;2023-03-13T09:44:21;99070.19;;;20.28;58.20
30730;BME280;17476;48.458;7.928;2023-03-13T09:52:33;99052.09;;;20.25;60.14
30730;BME280;17476;48.458;7.928;2023-03-13T09:55:13;99045.09;;;20.62;58.67
30730;BME280;17476;48.458;7.928;2023-03-13T10:00:53;99040.59;;;20.41;57.86
30730;BME280;17476;48.458;7.928;2023-03-13T10:06:18;99030.81;;;20.20;56.76
30730;BME280;17476;48.458;7.928;2023-03-13T10:08:44;99029.81;;;20.48;57.26
30730;BME280;17476;48.458;7.928;2023-03-13T10:14:27;99015.16;;;20.45;56.42
30730;BME280;17476;48.458;7.928;2023-03-13T10:22:45;99004.41;;;19.86;58.31
30730;BME280;17476;48.458;7.928;2023-03-13T10:25:34;99004.31;;;19.59;59.79
30730;BME280;17476;48.458;7.928;2023-03-13T10:28:01;98993.28;;;19.50;60.77
30730;BME280;17476;48.458;7.928;2023-03-13T10:30:33;98993.41;;;19.77;61.23
30730;BME280;17476;48.458;7.928;2023-03-13T10:35:36;98998.50;;;20.28;57.24
30730;BME280;17476;48.458;7.928;2023-03-13T10:38:18;99000.72;;;20.36;56.58
30730;BME280;17476;48.458;7.928;2023-03-13T10:40:57;98995.91;;;20.33;56.17
30730;BME280;17476;48.458;7.928;2023-03-13T10:43:26;98992.69;;;20.31;56.03
30730;BME280;17476;48.458;7.928;2023-03-13T10:45:52;98990.78;;;20.26;57.26
30730;BME280;17476;48.458;7.928;2023-03-13T10:48:22;98973.41;;;20.67;56.79
30730;BME280;17476;48.458;7.928;2023-03-13T10:50:53;98966.59;;;21.66;53.43
30730;BME280;17476;48.458;7.928;2023-03-13T10:56:15;98955.66;;;22.36;51.29
30730;BME280;17476;48.458;7.928;2023-03-13T10:58:50;98947.13;;;22.33;50.79
30730;BME280;17476;48.458;7.928;2023-03-13T11:01:27;98945.53;;;22.73;50.34
30730;BME280;17476;48.458;7.928;2023-03-13T11:03:56;98949.00;;;22.74;50.26
30730;BME280;17476;48.458;7.928;2023-03-13T11:06:30;98934.31;;;22.20;50.51
30730;BME280;17476;48.458;7.928;2023-03-13T11:09:03;98922.38;;;22.43;51.03
30730;BME280;17476;48.458;7.928;2023-03-13T11:14:13;98908.75;;;22.19;51.68
30730;BME280;17476;48.458;7.928;2023-03-13T11:17:03;98897.03;;;22.61;52.39
30730;BME280;17476;48.458;7.928;2023-03-13T11:19:34;98905.78;;;23.18;48.77
30730;BME280;17476;48.458;7.928;2023-03-13T11:25:55;98871.56;;;24.63;44.90
30730;BME280;17476;48.458;7.928;2023-03-13T11:31:57;98865.28;;;24.72;45.08
30730;BME280;17476;48.458;7.928;2023-03-13T11:34:39;98869.53;;;24.78;43.99
30730;BME280;17476;48.458;7.928;2023-03-13T11:37:16;98851.25;;;25.15;43.22
30730;BME280;17476;48.458;7.928;2023-03-13T11:40:12;98858.97;;;25.16;43.70
30730;BME280;17476;48.458;7.928;2023-03-13T11:42:58;98842.06;;;25.21;42.40
30730;BME280;17476;48.458;7.928;2023-03-13T11:45:49;98839.16;;;24.40;44.19
30730;BME280;17476;48.458;7.928;2023-03-13T11:52:11;98814.16;;;24.79;44.59
30730;BME280;17476;48.458;7.928;2023-03-13T11:54:47;98808.53;;;24.81;43.66
30730;BME280;17476;48.458;7.928;2023-03-13T12:05:56;98764.38;;;24.83;46.77
30730;BME280;17476;48.458;7.928;2023-03-13T12:08:33;98757.69;;;25.28;42.81
30730;BME280;17476;48.458;7.928;2023-03-13T12:14:04;98750.41;;;25.10;42.30
30730;BME280;17476;48.458;7.928;2023-03-13T12:16:47;98740.59;;;24.58;45.05
30730;BME280;17476;48.458;7.928;2023-03-13T12:19:22;98721.06;;;24.81;43.47
30730;BME280;17476;48.458;7.928;2023-03-13T12:21:54;98714.06;;;25.28;42.55
30730;BME280;17476;48.458;7.928;2023-03-13T12:24:31;98705.38;;;25.17;44.54
30730;BME280;17476;48.458;7.928;2023-03-13T12:27:28;98693.44;;;25.47;41.49
30730;BME280;17476;48.458;7.928;2023-03-13T12:30:24;98685.59;;;25.32;41.48
30730;BME280;17476;48.458;7.928;2023-03-13T12:33:25;98688.75;;;25.20;40.49
30730;BME280;17476;48.458;7.928;2023-03-13T12:36:35;98668.41;;;25.19;41.58
30730;BME280;17476;48.458;7.928;2023-03-13T12:39:21;98669.81;;;24.74;42.90
30730;BME280;17476;48.458;7.928;2023-03-13T12:42:22;98661.63;;;24.46;42.67
30730;BME280;17476;48.458;7.928;2023-03-13T12:44:54;98652.38;;;24.58;42.14
30730;BME280;17476;48.458;7.928;2023-03-13T12:59:15;98618.53;;;24.24;44.10
30730;BME280;17476;48.458;7.928;2023-03-13T13:01:47;98605.72;;;24.02;43.49
30730;BME280;17476;48.458;7.928;2023-03-13T13:04:20;98593.38;;;23.82;45.68
30730;BME280;17476;48.458;7.928;2023-03-13T13:07:03;98582.47;;;23.79;45.46
30730;BME280;17476;48.458;7.928;2023-03-13T13:09:34;98579.22;;;23.82;44.91
30730;BME280;17476;48.458;7.928;2023-03-13T13:12:22;98566.28;;;23.94;44.86
30730;BME280;17476;48.458;7.928;2023-03-13T13:17:21;98551.56;;;24.58;44.15
30730;BME280;17476;48.458;7.928;2023-03-13T13:19:49;98537.22;;;24.54;42.90
30730;BME280;17476;48.458;7.928;2023-03-13T13:25:32;98540.25;;;24.23;43.83
30730;BME280;17476;48.458;7.928;2023-03-13T13:28:25;98525.22;;;24.09;44.39
30730;BME280;17476;48.458;7.928;2023-03-13T13:30:55;98517.16;;;24.14;43.76
30730;BME280;17476;48.458;7.928;2023-03-13T13:33:32;98514.91;;;24.02;43.15
30730;BME280;17476;48.458;7.928;2023-03-13T13:38:39;98509.47;;;23.64;44.22
30730;BME280;17476;48.458;7.928;2023-03-13T13:43:41;98489.28;;;24.01;43.27
30730;BME280;17476;48.458;7.928;2023-03-13T13:48:38;98476.28;;;24.51;41.59
30730;BME280;17476;48.458;7.928;2023-03-13T13:54:00;98468.47;;;25.06;40.88
30730;BME280;17476;48.458;7.928;2023-03-13T14:01:32;98449.13;;;24.63;42.83
30730;BME280;17476;48.458;7.928;2023-03-13T14:04:12;98451.19;;;24.98;43.13
30730;BME280;17476;48.458;7.928;2023-03-13T14:06:44;98441.28;;;24.99;41.27
30730;BME280;17476;48.458;7.928;2023-03-13T14:09:53;98447.31;;;25.23;40.66
30730;BME280;17476;48.458;7.928;2023-03-13T14:12:36;98429.25;;;25.56;39.41
30730;BME280;17476;48.458;7.928;2023-03-13T14:15:13;98420.66;;;26.09;39.24
30730;BME280;17476;48.458;7.928;2023-03-13T14:17:51;98412.00;;;26.35;39.83
30730;BME280;17476;48.458;7.928;2023-03-13T14:20:32;98414.47;;;26.23;38.66
30730;BME280;17476;48.458;7.928;2023-03-13T14:23:06;98417.66;;;26.47;39.26
30730;BME280;17476;48.458;7.928;2023-03-13T14:25:46;98421.72;;;26.89;38.50
30730;BME280;17476;48.458;7.928;2023-03-13T14:28:25;98411.34;;;26.97;37.96
30730;BME280;17476;48.458;7.928;2023-03-13T14:30:55;98404.69;;;26.94;38.58
30730;BME280;17476;48.458;7.928;2023-03-13T14:33:21;98402.13;;;27.11;37.53
30730;BME280;17476;48.458;7.928;2023-03-13T14:35:48;98392.91;;;26.73;36.93
30730;BME280;17476;48.458;7.928;2023-03-13T14:38:26;98378.78;;;26.36;39.32
30730;BME280;17476;48.458;7.928;2023-03-13T14:40:55;98378.00;;;26.58;38.88
30730;BME280;17476;48.458;7.928;2023-03-13T14:43:40;98363.88;;;26.75;37.41
30730;BME280;17476;48.458;7.928;2023-03-13T14:46:33;98361.53;;;26.51;38.09
30730;BME280;17476;48.458;7.928;2023-03-13T14:49:20;98353.53;;;26.37;36.62
30730;BME280;17476;48.458;7.928;2023-03-13T14:52:04;98341.47;;;26.48;37.30
30730;BME280;17476;48.458;7.928;2023-03-13T14:54:36;98336.31;;;26.52;36.75
30730;BME280;17476;48.458;7.928;2023-03-13T14:57:20;98327.72;;;26.19;36.56
30730;BME280;17476;48.458;7.928;2023-03-13T14:59:51;98309.81;;;25.83;39.29